Time;durP1;ratioP1;P1;durP2;ratioP2;P2;SDS_P1;SDS_P2;PMS_P1;PMS_P2;Temp;Humidity;BMP_temperature;BMP_pressure;BME280_temperature;BME280_humidity;BME280_pressure;Samples;Min_cycle;Max_cycle;Signal;HPM_P1;HPM_P2
2022/03/25 00:02:26;;;;;;;32.60;17.55;;;7.20;38.10;;;;;;5014989;28;20684;-74
2022/03/25 00:04:53;;;;;;;27.75;15.45;;;7.20;38.10;;;;;;5015155;28;20204;-74
2022/03/25 00:07:20;;;;;;;28.48;16.90;;;7.10;38.20;;;;;;5019405;28;20279;-74
2022/03/25 00:09:47;;;;;;;22.17;15.98;;;7.00;38.70;;;;;;5023882;28;20270;-74
2022/03/25 00:12:14;;;;;;;24.02;16.95;;;7.00;38.90;;;;;;5025495;28;20208;-74
2022/03/25 00:14:41;;;;;;;29.10;17.20;;;7.00;38.80;;;;;;5029215;28;20207;-75
2022/03/25 00:17:10;;;;;;;22.52;16.30;;;7.00;38.40;;;;;;5019334;28;20207;-74
2022/03/25 00:19:37;;;;;;;25.50;15.43;;;7.00;38.60;;;;;;5014122;28;20286;-74
2022/03/25 00:22:04;;;;;;;27.83;16.60;;;6.90;39.80;;;;;;5017688;28;20212;-74
2022/03/25 00:24:31;;;;;;;26.25;16.73;;;6.90;39.40;;;;;;5017239;28;20228;-74
2022/03/25 00:26:58;;;;;;;24.10;16.33;;;6.80;39.50;;;;;;5017231;28;20233;-74
2022/03/25 00:29:25;;;;;;;23.42;16.10;;;6.80;39.90;;;;;;5016841;28;20277;-74
2022/03/25 00:31:52;;;;;;;25.30;16.67;;;6.70;40.20;;;;;;5019468;28;20660;-73
2022/03/25 00:34:20;;;;;;;21.73;15.85;;;6.70;40.50;;;;;;5017550;28;20252;-73
2022/03/25 00:36:47;;;;;;;24.50;16.70;;;6.60;40.80;;;;;;5016499;28;20751;-74
2022/03/25 00:39:14;;;;;;;24.08;16.08;;;6.60;41.00;;;;;;5016037;28;20224;-74
2022/03/25 00:41:44;;;;;;;24.10;16.20;;;6.60;41.30;;;;;;5016873;28;20208;-74
2022/03/25 00:44:12;;;;;;;23.10;16.75;;;6.40;41.60;;;;;;5016437;28;20331;-74
2022/03/25 00:46:40;;;;;;;25.17;17.05;;;6.40;41.90;;;;;;5017126;28;20207;-74
2022/03/25 00:49:07;;;;;;;23.95;16.02;;;6.50;42.00;;;;;;5016695;28;20232;-74
2022/03/25 00:51:35;;;;;;;22.30;16.45;;;6.50;42.10;;;;;;5017343;28;20207;-75
2022/03/25 00:54:03;;;;;;;25.58;16.75;;;6.50;42.30;;;;;;5016591;28;20227;-74
2022/03/25 00:56:30;;;;;;;25.80;17.10;;;6.50;42.30;;;;;;5017437;28;20621;-73
2022/03/25 00:58:57;;;;;;;26.52;16.38;;;6.40;42.40;;;;;;5019515;28;20311;-75
2022/03/25 01:01:25;;;;;;;22.58;16.35;;;6.40;42.60;;;;;;5030559;28;20680;-74
2022/03/25 01:03:52;;;;;;;21.92;16.33;;;6.40;42.60;;;;;;5021072;28;20203;-75
2022/03/25 01:06:19;;;;;;;24.65;16.38;;;6.40;42.90;;;;;;5016289;28;20263;-74
2022/03/25 01:08:48;;;;;;;23.10;16.67;;;6.40;43.20;;;;;;5016293;28;20235;-75
2022/03/25 01:11:15;;;;;;;24.83;16.77;;;6.30;43.50;;;;;;5019608;28;20207;-75
2022/03/25 01:13:42;;;;;;;23.25;17.08;;;6.30;43.60;;;;;;5016251;28;20294;-73
2022/03/25 01:16:09;;;;;;;25.30;16.48;;;6.40;43.90;;;;;;5016015;28;20291;-75
2022/03/25 01:18:36;;;;;;;23.80;16.55;;;6.30;43.70;;;;;;5023253;28;20254;-75
2022/03/25 01:21:03;;;;;;;23.85;16.52;;;6.20;43.90;;;;;;5026128;28;20227;-75
2022/03/25 01:23:30;;;;;;;22.52;15.93;;;6.10;43.90;;;;;;5028871;28;20247;-74
2022/03/25 01:25:58;;;;;;;24.23;15.85;;;6.10;44.00;;;;;;5030731;28;20200;-76
2022/03/25 01:28:25;;;;;;;24.83;16.02;;;6.00;44.10;;;;;;5029415;28;20227;-75
2022/03/25 01:30:52;;;;;;;23.05;16.10;;;6.00;44.30;;;;;;5026107;28;20257;-75
2022/03/25 01:33:19;;;;;;;24.25;16.02;;;6.00;45.30;;;;;;5025675;28;20208;-74
2022/03/25 01:35:47;;;;;;;29.25;17.65;;;6.00;44.70;;;;;;5022944;28;20274;-75
2022/03/25 01:38:14;;;;;;;26.45;17.88;;;5.90;45.00;;;;;;5019227;28;20297;-75
2022/03/25 01:40:41;;;;;;;22.67;15.65;;;5.90;45.30;;;;;;5015816;28;20563;-75
2022/03/25 01:43:09;;;;;;;26.02;17.05;;;5.90;45.00;;;;;;5015587;28;20238;-74
2022/03/25 01:45:38;;;;;;;27.95;17.05;;;5.80;45.10;;;;;;5015762;28;20230;-74
2022/03/25 01:50:36;;;;;;;26.52;17.20;;;5.80;45.40;;;;;;5060932;28;20670;-76
2022/03/25 01:53:04;;;;;;;24.58;17.20;;;5.80;45.30;;;;;;5060405;28;20207;-77
2022/03/25 01:55:38;;;;;;;26.27;16.45;;;5.70;45.10;;;;;;5048123;28;20234;-76
2022/03/25 01:58:06;;;;;;;25.42;16.23;;;5.70;45.60;;;;;;5056100;28;20214;-77
2022/03/25 02:00:35;;;;;;;28.77;15.90;;;5.70;46.00;;;;;;5047524;28;20207;-77
2022/03/25 02:03:02;;;;;;;24.27;16.33;;;5.60;45.80;;;;;;5037637;28;20204;-77
2022/03/25 02:05:29;;;;;;;20.77;14.45;;;5.60;46.40;;;;;;5026351;28;20238;-76
2022/03/25 02:07:56;;;;;;;29.10;16.98;;;5.60;46.40;;;;;;5033574;28;20207;-77
2022/03/25 02:10:23;;;;;;;26.75;17.08;;;5.60;46.40;;;;;;5046243;28;20207;-76
2022/03/25 02:12:50;;;;;;;28.63;16.88;;;5.60;46.40;;;;;;5041921;28;20694;-77
2022/03/25 02:15:17;;;;;;;24.55;14.75;;;5.50;46.30;;;;;;5025897;28;20231;-77
2022/03/25 02:17:45;;;;;;;23.30;16.35;;;5.50;46.30;;;;;;5030567;28;20740;-77
2022/03/25 02:20:13;;;;;;;29.05;17.00;;;5.50;46.40;;;;;;5047658;28;20299;-78
2022/03/25 02:22:41;;;;;;;30.45;15.32;;;5.40;46.20;;;;;;5043108;28;20211;-78
2022/03/25 02:25:11;;;;;;;26.40;16.63;;;5.40;46.20;;;;;;5033316;28;20199;-76
2022/03/25 02:27:39;;;;;;;28.10;16.45;;;5.40;46.20;;;;;;5029659;28;20210;-77
2022/03/25 02:30:07;;;;;;;28.95;16.60;;;5.50;46.30;;;;;;5021326;28;20769;-77
2022/03/25 02:32:35;;;;;;;27.50;16.55;;;5.40;46.20;;;;;;5022940;28;20212;-77
2022/03/25 02:35:02;;;;;;;28.20;16.17;;;5.40;46.20;;;;;;5018655;28;20299;-76
2022/03/25 02:37:29;;;;;;;24.80;15.60;;;5.40;46.20;;;;;;5016076;28;20207;-76
2022/03/25 02:39:58;;;;;;;25.02;16.90;;;5.40;46.20;;;;;;5019313;28;20716;-76
2022/03/25 02:42:25;;;;;;;25.25;16.52;;;5.40;46.20;;;;;;5028813;28;20666;-77
2022/03/25 02:44:52;;;;;;;27.85;16.45;;;5.40;46.20;;;;;;5041832;28;20674;-76
2022/03/25 02:47:19;;;;;;;27.70;16.40;;;5.30;46.10;;;;;;5040793;28;20199;-77
2022/03/25 02:49:46;;;;;;;24.80;15.75;;;5.30;46.10;;;;;;5043158;28;20334;-76
2022/03/25 02:52:13;;;;;;;26.70;16.55;;;5.30;46.10;;;;;;5039381;28;20294;-77
2022/03/25 02:54:40;;;;;;;27.10;16.70;;;5.30;46.10;;;;;;5024802;28;20699;-77
2022/03/25 02:57:09;;;;;;;29.00;17.48;;;5.30;46.10;;;;;;5022141;28;20206;-78
2022/03/25 02:59:36;;;;;;;25.75;15.23;;;5.20;46.10;;;;;;5036597;28;20766;-78
2022/03/25 03:02:03;;;;;;;26.88;15.68;;;5.10;46.00;;;;;;5031780;28;20263;-77
2022/03/25 03:04:30;;;;;;;22.42;15.35;;;5.00;46.40;;;;;;5015908;28;20212;-76
2022/03/25 03:06:57;;;;;;;24.77;16.42;;;5.00;46.70;;;;;;5023827;28;20207;-77
2022/03/25 03:09:24;;;;;;;25.67;16.17;;;5.00;47.00;;;;;;5045892;28;20258;-79
2022/03/25 03:11:51;;;;;;;23.10;15.07;;;5.00;47.20;;;;;;5040510;28;20301;-78
2022/03/25 03:14:20;;;;;;;27.42;16.52;;;4.90;47.30;;;;;;5037515;28;20306;-78
2022/03/25 03:16:48;;;;;;;23.45;16.45;;;4.90;47.50;;;;;;5035795;28;20214;-77
2022/03/25 03:19:15;;;;;;;24.67;16.90;;;4.90;48.90;;;;;;5017149;28;20294;-76
2022/03/25 03:21:42;;;;;;;28.20;15.23;;;4.90;47.90;;;;;;5024211;28;20223;-77
2022/03/25 03:24:09;;;;;;;24.65;16.33;;;4.90;48.20;;;;;;5051789;28;20217;-77
2022/03/25 03:26:36;;;;;;;25.25;15.38;;;4.80;48.00;;;;;;5052229;28;20261;-76
2022/03/25 03:29:04;;;;;;;30.67;17.42;;;4.90;47.90;;;;;;5031605;28;20228;-75
2022/03/25 03:31:32;;;;;;;28.17;17.50;;;4.90;47.60;;;;;;5034369;28;20208;-76
2022/03/25 03:33:59;;;;;;;27.35;16.92;;;4.80;47.80;;;;;;5030738;28;20659;-77
2022/03/25 03:36:26;;;;;;;26.88;16.35;;;4.80;48.20;;;;;;5027175;28;20223;-77
2022/03/25 03:38:53;;;;;;;24.88;15.93;;;4.80;48.40;;;;;;5027741;28;20227;-76
2022/03/25 03:41:20;;;;;;;24.17;16.23;;;4.80;47.80;;;;;;5027758;28;20207;-78
2022/03/25 03:43:46;;;;;;;24.50;15.82;;;4.90;47.90;;;;;;5032789;28;20195;-75
2022/03/25 03:46:13;;;;;;;23.48;15.02;;;4.90;47.70;;;;;;5034600;28;20208;-77
2022/03/25 03:48:42;;;;;;;26.10;16.52;;;4.80;47.70;;;;;;5031679;28;20262;-78
2022/03/25 03:51:11;;;;;;;25.30;15.18;;;4.70;47.90;;;;;;5018826;28;20262;-77
2022/03/25 03:53:38;;;;;;;27.00;15.52;;;4.70;48.10;;;;;;5019757;28;20273;-78
2022/03/25 03:56:06;;;;;;;26.25;15.93;;;4.60;48.60;;;;;;5034510;28;20238;-78
2022/03/25 03:58:33;;;;;;;27.08;17.05;;;4.70;48.40;;;;;;5037966;28;20724;-77
2022/03/25 04:00:59;;;;;;;27.15;16.90;;;4.70;48.10;;;;;;5039361;28;20278;-77
2022/03/25 04:03:29;;;;;;;25.75;16.67;;;4.70;48.40;;;;;;5038299;28;20294;-76
2022/03/25 04:05:58;;;;;;;26.75;16.25;;;4.70;48.20;;;;;;5039632;28;20211;-77
2022/03/25 04:08:25;;;;;;;27.75;15.80;;;4.60;48.20;;;;;;5026430;28;20270;-77
2022/03/25 04:10:52;;;;;;;28.13;16.05;;;4.60;48.30;;;;;;5021253;28;20215;-76
2022/03/25 04:13:19;;;;;;;27.35;15.63;;;4.60;48.40;;;;;;5024920;28;20609;-77
2022/03/25 04:15:46;;;;;;;23.20;14.23;;;4.60;48.80;;;;;;5023159;28;20227;-76
2022/03/25 04:18:13;;;;;;;30.08;17.05;;;4.60;48.40;;;;;;5044573;28;20210;-77
2022/03/25 04:20:40;;;;;;;27.73;16.15;;;4.60;48.50;;;;;;5033051;28;20204;-77
2022/03/25 04:23:08;;;;;;;28.98;16.63;;;4.50;48.60;;;;;;5046617;28;20203;-77
2022/03/25 04:25:35;;;;;;;29.02;16.92;;;4.60;49.00;;;;;;5050816;28;20207;-77
2022/03/25 04:28:02;;;;;;;28.33;15.73;;;4.50;48.90;;;;;;5049757;28;20478;-78
2022/03/25 04:30:32;;;;;;;26.92;16.10;;;4.40;49.20;;;;;;5045679;28;20338;-76
2022/03/25 04:32:59;;;;;;;27.40;16.27;;;4.40;49.70;;;;;;5051229;28;20207;-77
2022/03/25 04:35:28;;;;;;;29.70;16.98;;;4.30;50.00;;;;;;5047933;28;20219;-77
2022/03/25 04:37:56;;;;;;;24.45;16.05;;;4.30;50.00;;;;;;5041169;28;20204;-78
2022/03/25 04:40:26;;;;;;;30.50;17.60;;;4.30;50.00;;;;;;5033054;28;20212;-76
2022/03/25 04:42:54;;;;;;;27.50;17.08;;;4.30;50.00;;;;;;5038234;28;20213;-75
2022/03/25 04:45:22;;;;;;;24.60;15.45;;;4.20;50.40;;;;;;5035072;28;20282;-78
2022/03/25 04:47:50;;;;;;;29.40;16.73;;;4.20;50.60;;;;;;5034603;28;20664;-76
2022/03/25 04:50:17;;;;;;;26.60;15.45;;;4.20;50.50;;;;;;5034277;28;20246;-77
2022/03/25 04:52:43;;;;;;;23.63;14.73;;;4.20;50.80;;;;;;5031176;28;20200;-77
2022/03/25 04:55:11;;;;;;;25.70;15.50;;;4.20;50.70;;;;;;5018681;28;20279;-77
2022/03/25 04:57:39;;;;;;;33.47;16.80;;;4.10;51.10;;;;;;5018756;28;20254;-78
2022/03/25 05:00:08;;;;;;;24.60;15.88;;;4.10;51.20;;;;;;5018769;28;20227;-77
2022/03/25 05:02:35;;;;;;;24.98;15.27;;;4.00;51.30;;;;;;5018187;28;20208;-76
2022/03/25 05:05:02;;;;;;;22.63;14.68;;;4.00;51.50;;;;;;5018846;28;20207;-78
2022/03/25 05:07:30;;;;;;;26.00;16.13;;;4.00;51.40;;;;;;5018141;28;20211;-77
2022/03/25 05:09:58;;;;;;;27.00;15.63;;;4.00;51.60;;;;;;5019475;28;20224;-77
2022/03/25 05:12:25;;;;;;;27.45;15.05;;;3.90;51.80;;;;;;5025752;28;20210;-78
2022/03/25 05:14:54;;;;;;;27.85;17.52;;;4.00;52.50;;;;;;5021638;28;20211;-76
2022/03/25 05:17:21;;;;;;;24.88;14.93;;;4.00;52.10;;;;;;5021284;28;20238;-77
2022/03/25 05:19:48;;;;;;;28.15;16.55;;;4.00;52.00;;;;;;5020637;28;20269;-78
2022/03/25 05:22:15;;;;;;;27.73;15.85;;;4.00;52.40;;;;;;5037411;28;20211;-78
2022/03/25 05:24:42;;;;;;;29.35;17.35;;;3.90;52.50;;;;;;5036825;28;20222;-77
2022/03/25 05:27:09;;;;;;;27.65;15.05;;;3.80;53.60;;;;;;5041116;28;20206;-78
2022/03/25 05:29:36;;;;;;;28.58;15.85;;;3.80;53.40;;;;;;5037910;28;20230;-78
2022/03/25 05:32:05;;;;;;;31.55;17.25;;;3.80;54.20;;;;;;5018154;28;20857;-77
2022/03/25 05:34:32;;;;;;;31.10;18.10;;;3.90;54.40;;;;;;5020255;28;20216;-77
2022/03/25 05:36:59;;;;;;;30.15;17.15;;;3.80;53.90;;;;;;5028181;28;20231;-77
2022/03/25 05:39:26;;;;;;;26.20;17.30;;;3.80;54.30;;;;;;5034577;28;20236;-76
2022/03/25 05:41:52;;;;;;;29.08;17.17;;;3.80;54.30;;;;;;5047188;28;20218;-76
2022/03/25 05:44:19;;;;;;;27.73;15.95;;;3.90;54.40;;;;;;5037946;28;20294;-78
2022/03/25 05:46:46;;;;;;;28.73;16.42;;;4.00;54.50;;;;;;5037059;28;20699;-77
2022/03/25 05:49:15;;;;;;;23.45;15.32;;;4.00;54.50;;;;;;5043164;28;20304;-77
2022/03/25 05:51:41;;;;;;;26.17;15.93;;;4.20;53.60;;;;;;5053920;28;20237;-78
2022/03/25 05:54:08;;;;;;;26.02;15.05;;;4.20;53.10;;;;;;5056712;28;20207;-77
2022/03/25 05:56:36;;;;;;;23.95;16.20;;;4.30;52.60;;;;;;5055671;28;20217;-77
2022/03/25 05:59:03;;;;;;;25.67;15.80;;;4.30;52.20;;;;;;5054912;28;20542;-75
2022/03/25 06:01:30;;;;;;;25.90;15.88;;;4.30;52.30;;;;;;5033821;28;20250;-77
2022/03/25 06:03:57;;;;;;;24.35;16.38;;;4.30;52.10;;;;;;5026703;28;20208;-78
2022/03/25 06:06:25;;;;;;;24.02;15.68;;;4.30;52.20;;;;;;5026293;28;20210;-77
2022/03/25 06:08:53;;;;;;;26.15;15.23;;;4.30;52.50;;;;;;5024064;28;20236;-77
2022/03/25 06:11:20;;;;;;;24.45;16.52;;;4.30;53.10;;;;;;5026380;28;20203;-77
2022/03/25 06:13:47;;;;;;;29.30;17.10;;;4.20;53.90;;;;;;5041059;28;20215;-80
2022/03/25 06:16:14;;;;;;;26.10;16.35;;;4.20;54.60;;;;;;5028987;28;20230;-77
2022/03/25 06:18:41;;;;;;;27.02;17.67;;;4.10;54.50;;;;;;5032785;28;20227;-77
2022/03/25 06:21:08;;;;;;;25.17;15.02;;;4.10;54.50;;;;;;5050114;28;20738;-78
2022/03/25 06:23:36;;;;;;;25.65;16.52;;;4.30;54.70;;;;;;5056647;28;20195;-76
2022/03/25 06:26:05;;;;;;;29.05;17.77;;;4.40;54.00;;;;;;5055975;28;20191;-77
2022/03/25 06:28:32;;;;;;;27.73;16.73;;;4.50;53.40;;;;;;5040753;28;20287;-77
2022/03/25 06:30:59;;;;;;;25.35;15.45;;;4.50;52.70;;;;;;5042495;28;20609;-77
2022/03/25 06:33:25;;;;;;;30.30;14.98;;;4.50;52.30;;;;;;5049980;28;20226;-76
2022/03/25 06:35:52;;;;;;;27.33;16.80;;;4.60;52.70;;;;;;5051302;28;20222;-77
2022/03/25 06:38:19;;;;;;;23.60;15.68;;;4.60;51.60;;;;;;5050814;28;20242;-77
2022/03/25 06:40:48;;;;;;;29.58;16.50;;;4.60;51.60;;;;;;5047794;28;20275;-76
2022/03/25 06:43:15;;;;;;;30.15;17.80;;;4.70;52.00;;;;;;5052470;28;20199;-76
2022/03/25 06:45:42;;;;;;;27.60;16.90;;;4.90;52.10;;;;;;5039279;28;20275;-78
2022/03/25 06:48:10;;;;;;;25.83;16.40;;;5.10;51.20;;;;;;5042396;28;20203;-76
2022/03/25 06:50:37;;;;;;;29.50;17.17;;;5.20;50.80;;;;;;5042362;28;20226;-77
2022/03/25 06:53:05;;;;;;;27.52;16.13;;;5.40;50.40;;;;;;5051272;28;20207;-77
2022/03/25 06:55:33;;;;;;;24.27;16.27;;;5.50;49.30;;;;;;5048615;28;20302;-76
2022/03/25 06:58:02;;;;;;;26.35;16.60;;;5.70;48.60;;;;;;5047757;28;20275;-77
2022/03/25 07:00:30;;;;;;;24.52;15.80;;;5.70;48.20;;;;;;5049455;28;20203;-77
2022/03/25 07:02:57;;;;;;;26.73;16.70;;;5.90;47.50;;;;;;5058419;28;20237;-77
2022/03/25 07:05:25;;;;;;;29.35;17.15;;;6.10;46.80;;;;;;5050842;28;20290;-76
2022/03/25 07:07:52;;;;;;;26.92;17.27;;;6.10;46.80;;;;;;5045552;28;20203;-79
2022/03/25 07:10:23;;;;;;;30.52;18.67;;;6.20;46.90;;;;;;5049648;28;20243;-77
2022/03/25 07:12:51;;;;;;;31.85;18.20;;;6.30;45.70;;;;;;5048618;28;20214;-78
2022/03/25 07:15:20;;;;;;;27.92;16.90;;;6.30;45.30;;;;;;5046325;28;20211;-78
2022/03/25 07:17:47;;;;;;;29.60;18.73;;;6.40;45.30;;;;;;5049920;28;20249;-76
2022/03/25 07:20:17;;;;;;;34.92;19.38;;;6.50;45.00;;;;;;5050455;28;20262;-77
2022/03/25 07:22:45;;;;;;;27.27;17.70;;;6.70;44.30;;;;;;5044673;28;20286;-76
2022/03/25 07:25:12;;;;;;;32.70;18.60;;;6.80;44.20;;;;;;5034117;28;20204;-77
2022/03/25 07:27:40;;;;;;;26.33;17.73;;;6.90;44.30;;;;;;5033882;28;20203;-79
2022/03/25 07:30:08;;;;;;;32.45;20.08;;;7.00;43.00;;;;;;5051870;28;20279;-78
2022/03/25 07:32:36;;;;;;;27.23;18.20;;;7.20;42.90;;;;;;5034426;28;20207;-77
2022/03/25 07:35:04;;;;;;;32.97;18.00;;;7.20;41.70;;;;;;5034580;28;20199;-77
2022/03/25 07:37:31;;;;;;;31.42;18.05;;;7.20;41.50;;;;;;5037368;28;20642;-78
2022/03/25 07:39:58;;;;;;;26.42;17.70;;;7.30;41.30;;;;;;5034312;28;20230;-77
2022/03/25 07:42:25;;;;;;;32.03;18.58;;;7.40;41.10;;;;;;5037751;28;20515;-77
2022/03/25 07:44:52;;;;;;;29.60;19.38;;;7.70;40.50;;;;;;5037118;28;20234;-76
2022/03/25 07:47:19;;;;;;;32.25;18.55;;;7.70;39.80;;;;;;5044718;28;20289;-75
2022/03/25 07:49:48;;;;;;;30.40;18.55;;;7.70;38.50;;;;;;5060743;23;20227;-75
2022/03/25 07:52:16;;;;;;;30.15;18.95;;;7.90;39.40;;;;;;5033614;28;20214;-77
2022/03/25 07:54:43;;;;;;;32.80;19.65;;;8.10;38.80;;;;;;5036053;28;20207;-76
2022/03/25 07:57:10;;;;;;;37.80;20.75;;;8.30;38.60;;;;;;5040460;28;20237;-74
2022/03/25 07:59:37;;;;;;;33.28;20.65;;;8.40;37.30;;;;;;5039669;28;20235;-76
2022/03/25 08:02:05;;;;;;;33.90;20.17;;;8.40;36.70;;;;;;5039961;28;20758;-76
2022/03/25 08:04:32;;;;;;;32.42;20.80;;;8.40;36.70;;;;;;5039921;28;20199;-76
2022/03/25 08:07:00;;;;;;;28.60;19.48;;;8.50;36.50;;;;;;5039629;28;20213;-74
2022/03/25 08:09:27;;;;;;;36.20;21.50;;;8.80;36.00;;;;;;5045703;28;20234;-74
2022/03/25 08:11:54;;;;;;;38.80;22.08;;;8.80;35.90;;;;;;5044089;28;20241;-75
2022/03/25 08:14:22;;;;;;;35.90;21.23;;;8.80;35.90;;;;;;5041524;28;20217;-75
2022/03/25 08:16:48;;;;;;;36.00;22.77;;;9.00;35.10;;;;;;5047789;28;20211;-75
2022/03/25 08:19:15;;;;;;;34.50;22.70;;;9.30;35.40;;;;;;5043349;28;20283;-76
2022/03/25 08:21:42;;;;;;;33.22;20.58;;;9.50;33.90;;;;;;5048606;28;20214;-75
2022/03/25 08:29:39;;;;;;;43.55;21.77;;;9.80;33.60;;;;;;4981622;28;20556;-75
2022/03/25 08:32:07;;;;;;;38.10;20.00;;;10.00;32.00;;;;;;4974395;28;20316;-75
2022/03/25 08:34:34;;;;;;;33.72;20.35;;;10.30;31.30;;;;;;4983563;28;20219;-75
2022/03/25 08:37:01;;;;;;;35.05;20.25;;;10.30;31.30;;;;;;5008903;28;20220;-74
2022/03/25 08:39:29;;;;;;;37.10;20.65;;;10.50;30.70;;;;;;4987815;28;20237;-75
2022/03/25 08:41:56;;;;;;;33.35;19.92;;;10.70;30.10;;;;;;4970430;28;20201;-72
2022/03/25 08:44:23;;;;;;;36.90;22.08;;;10.80;30.20;;;;;;4983408;28;20243;-76
2022/03/25 08:46:50;;;;;;;33.00;20.77;;;10.90;30.30;;;;;;4983556;28;20209;-74
2022/03/25 08:49:16;;;;;;;30.17;20.25;;;10.90;30.30;;;;;;4980576;28;20413;-74
2022/03/25 08:51:44;;;;;;;39.88;21.90;;;10.90;30.30;;;;;;4977535;28;20240;-76
2022/03/25 08:54:10;;;;;;;33.72;21.20;;;11.10;30.50;;;;;;4976320;28;20201;-74
2022/03/25 08:56:39;;;;;;;35.72;21.00;;;11.10;29.90;;;;;;4975517;28;20239;-75
2022/03/25 08:59:06;;;;;;;31.15;20.20;;;11.20;30.00;;;;;;4974724;28;20717;-76
2022/03/25 09:01:33;;;;;;;35.33;21.23;;;11.40;29.80;;;;;;4976997;28;20248;-74
2022/03/25 09:04:00;;;;;;;38.75;22.50;;;11.60;29.20;;;;;;4978835;28;20240;-74
2022/03/25 09:06:26;;;;;;;37.53;21.70;;;11.70;28.90;;;;;;4984595;28;20213;-76
2022/03/25 09:08:53;;;;;;;39.33;21.60;;;11.80;28.40;;;;;;4984453;28;20651;-79
2022/03/25 09:11:21;;;;;;;32.78;21.60;;;11.90;28.60;;;;;;4984910;28;20236;-77
2022/03/25 09:13:49;;;;;;;41.05;22.65;;;12.00;28.30;;;;;;4983883;28;20261;-78
2022/03/25 09:16:16;;;;;;;33.00;21.58;;;11.90;28.80;;;;;;4978131;28;20213;-74
2022/03/25 09:18:43;;;;;;;35.80;22.05;;;12.00;28.30;;;;;;4977991;28;20225;-73
2022/03/25 09:21:10;;;;;;;37.50;21.90;;;12.30;28.00;;;;;;4977342;28;20244;-74
2022/03/25 09:23:37;;;;;;;31.42;22.13;;;12.40;27.40;;;;;;4978436;28;20209;-76
2022/03/25 09:26:04;;;;;;;37.55;23.55;;;12.50;26.90;;;;;;4980593;28;20209;-77
2022/03/25 09:28:31;;;;;;;35.33;22.48;;;12.30;26.60;;;;;;4978392;28;20748;-75
2022/03/25 09:30:59;;;;;;;39.85;21.88;;;12.30;27.10;;;;;;4979426;28;20209;-75
2022/03/25 09:33:27;;;;;;;35.80;24.38;;;12.60;26.50;;;;;;4988553;28;20205;-76
2022/03/25 09:35:54;;;;;;;39.42;24.25;;;12.90;26.30;;;;;;4991324;28;20205;-75
2022/03/25 09:38:20;;;;;;;36.10;22.25;;;12.60;26.60;;;;;;4980051;28;20231;-75
2022/03/25 09:40:48;;;;;;;35.03;21.95;;;12.80;26.30;;;;;;4976837;28;20209;-75
2022/03/25 09:43:15;;;;;;;33.60;21.65;;;13.00;24.90;;;;;;4977370;28;20685;-75
2022/03/25 09:45:42;;;;;;;35.35;23.52;;;13.10;25.70;;;;;;4976982;28;20229;-74
2022/03/25 09:48:11;;;;;;;35.20;23.83;;;13.30;25.10;;;;;;4958091;28;20206;-74
2022/03/25 09:50:40;;;;;;;38.57;22.87;;;13.50;24.80;;;;;;4959188;28;21063;-75
2022/03/25 09:53:07;;;;;;;39.20;23.40;;;13.70;24.40;;;;;;4981513;28;20452;-75
2022/03/25 09:55:37;;;;;;;41.67;23.70;;;13.70;24.40;;;;;;4977923;28;20439;-74
2022/03/25 09:58:04;;;;;;;34.80;23.37;;;13.40;25.40;;;;;;4962427;29;20736;-74
2022/03/25 10:00:31;;;;;;;32.83;21.57;;;13.70;24.90;;;;;;4991509;28;20459;-76
2022/03/25 10:02:58;;;;;;;37.23;24.20;;;13.80;24.40;;;;;;4997415;28;20897;-74
2022/03/25 10:05:26;;;;;;;39.43;24.00;;;14.10;24.60;;;;;;4993658;28;20452;-75
2022/03/25 10:07:55;;;;;;;41.10;24.07;;;14.20;24.70;;;;;;4989240;28;20427;-76
2022/03/25 10:10:24;;;;;;;37.60;26.10;;;14.20;24.70;;;;;;4977210;28;20516;-78
2022/03/25 10:12:58;;;;;;;36.23;24.37;;;14.30;24.80;;;;;;4976878;28;20435;-78
2022/03/25 10:15:26;;;;;;;39.80;23.60;;;14.40;24.80;;;;;;4977408;28;20457;-76
2022/03/25 10:17:55;;;;;;;35.17;24.27;;;14.40;24.80;;;;;;4976456;28;20547;-75
2022/03/25 10:20:24;;;;;;;39.13;25.93;;;14.40;24.80;;;;;;4975813;28;20458;-74
2022/03/25 10:23:05;;;;;;;35.17;24.53;;;14.70;24.10;;;;;;4976308;28;20465;-76
2022/03/25 10:25:40;;;;;;;38.77;25.17;;;15.00;23.70;;;;;;4975374;28;20456;-74
2022/03/25 10:28:23;;;;;;;38.23;24.90;;;14.90;23.40;;;;;;4975376;28;20843;-74
2022/03/25 10:30:52;;;;;;;49.53;25.17;;;14.80;23.80;;;;;;4975443;28;20443;-77
2022/03/25 10:33:25;;;;;;;38.23;24.77;;;14.90;23.30;;;;;;4975395;28;20464;-76
2022/03/25 10:36:04;;;;;;;38.00;25.10;;;15.10;23.20;;;;;;4974988;28;20445;-76
2022/03/25 10:38:43;;;;;;;33.63;23.30;;;15.10;23.10;;;;;;4975587;28;20467;-76
2022/03/25 10:41:12;;;;;;;38.10;26.00;;;15.30;22.80;;;;;;4975108;28;20487;-74
2022/03/25 10:43:50;;;;;;;39.73;23.47;;;15.50;22.70;;;;;;4975034;28;21053;-74
2022/03/25 10:46:31;;;;;;;38.03;24.40;;;15.60;22.50;;;;;;4975193;28;20495;-75
2022/03/25 10:48:59;;;;;;;39.17;24.73;;;15.50;22.10;;;;;;4973825;28;21012;-74
2022/03/25 10:51:26;;;;;;;42.40;24.60;;;15.30;22.50;;;;;;4974313;28;20464;-75
2022/03/25 10:53:59;;;;;;;40.07;25.27;;;15.30;22.30;;;;;;4974491;28;20447;-75
2022/03/25 10:56:27;;;;;;;39.10;25.40;;;15.40;21.90;;;;;;4973508;28;20543;-77
2022/03/25 10:58:55;;;;;;;37.70;24.67;;;15.50;21.60;;;;;;4974633;28;20947;-75
2022/03/25 11:01:22;;;;;;;36.83;24.27;;;15.70;21.60;;;;;;4974638;28;20464;-75
2022/03/25 11:03:50;;;;;;;37.80;25.00;;;15.70;21.10;;;;;;4974685;28;20697;-75
2022/03/25 11:06:18;;;;;;;39.80;25.70;;;15.80;21.20;;;;;;4973798;28;20435;-75
2022/03/25 11:08:45;;;;;;;40.20;26.50;;;16.00;20.40;;;;;;4974652;28;20472;-74
2022/03/25 11:11:16;;;;;;;41.27;26.27;;;16.20;19.60;;;;;;4974321;28;20464;-75
2022/03/25 11:13:45;;;;;;;34.40;24.50;;;16.30;19.80;;;;;;4975132;28;20757;-75
2022/03/25 11:16:15;;;;;;;38.50;24.93;;;16.40;19.40;;;;;;4974797;28;20937;-75
2022/03/25 11:18:44;;;;;;;35.17;23.70;;;16.60;19.10;;;;;;4974694;28;20953;-74
2022/03/25 11:21:13;;;;;;;41.07;26.00;;;16.60;18.90;;;;;;4974993;28;20457;-72
2022/03/25 11:23:44;;;;;;;41.93;27.57;;;16.60;18.20;;;;;;4976115;28;20888;-73
2022/03/25 11:26:17;;;;;;;35.83;24.67;;;16.80;18.30;;;;;;4981528;28;20599;-73
2022/03/25 11:28:45;;;;;;;34.43;26.00;;;16.80;18.30;;;;;;4984156;28;20476;-74
2022/03/25 11:31:12;;;;;;;40.23;25.93;;;17.00;18.50;;;;;;4981639;28;20467;-75
2022/03/25 11:34:09;;;;;;;32.20;23.93;;;17.00;18.50;;;;;;4985427;28;20423;-74
2022/03/25 11:36:40;;;;;;;33.70;24.10;;;17.00;18.50;;;;;;4975621;28;20453;-74
2022/03/25 11:39:22;;;;;;;35.87;25.50;;;16.80;18.30;;;;;;4977148;28;20496;-75
2022/03/25 11:41:53;;;;;;;37.10;26.30;;;16.90;18.50;;;;;;4976393;28;20547;-76
2022/03/25 11:44:23;;;;;;;38.93;25.90;;;16.80;18.30;;;;;;4975581;28;20457;-75
2022/03/25 11:47:23;;;;;;;34.47;24.77;;;16.90;18.40;;;;;;4977276;28;20460;-74
2022/03/25 11:49:50;;;;;;;35.77;25.27;;;17.30;17.80;;;;;;4954507;29;20464;-74
2022/03/25 11:52:33;;;;;;;37.40;26.40;;;17.30;17.70;;;;;;4955880;28;20442;-74
2022/03/25 11:55:01;;;;;;;43.97;28.27;;;17.60;17.70;;;;;;4959029;29;20466;-74
2022/03/25 11:57:31;;;;;;;44.53;27.60;;;17.60;17.50;;;;;;4959873;28;20524;-72
2022/03/25 11:59:59;;;;;;;38.50;26.00;;;17.60;17.60;;;;;;4955820;28;20541;-74
2022/03/25 12:02:29;;;;;;;39.23;26.03;;;17.50;17.80;;;;;;4956524;28;20545;-73
2022/03/25 12:04:57;;;;;;;41.73;27.23;;;17.30;18.70;;;;;;4959001;28;20440;-75
2022/03/25 12:07:24;;;;;;;38.20;26.40;;;17.50;18.40;;;;;;4960101;28;20497;-75
2022/03/25 12:09:51;;;;;;;42.13;27.43;;;17.60;17.70;;;;;;4966134;28;20480;-75
2022/03/25 12:12:18;;;;;;;43.73;27.93;;;17.50;17.90;;;;;;4967361;28;20436;-73
2022/03/25 12:15:10;;;;;;;39.93;27.93;;;17.50;18.30;;;;;;4967975;29;20457;-74
2022/03/25 12:17:36;;;;;;;44.50;29.07;;;17.80;18.20;;;;;;4961669;28;20485;-74
2022/03/25 12:20:04;;;;;;;45.27;28.10;;;18.00;17.40;;;;;;4969145;28;20466;-74
2022/03/25 12:22:34;;;;;;;40.60;27.97;;;18.10;17.20;;;;;;4986433;28;20442;-73
2022/03/25 12:25:21;;;;;;;40.70;28.80;;;18.30;17.40;;;;;;4982966;28;20564;-76
2022/03/25 12:27:48;;;;;;;42.17;28.27;;;18.30;16.80;;;;;;4961845;28;20914;-74
2022/03/25 12:30:16;;;;;;;36.77;27.20;;;18.30;16.80;;;;;;4963736;28;20548;-75
2022/03/25 12:32:43;;;;;;;40.53;28.40;;;18.50;16.80;;;;;;4983938;28;20480;-76
2022/03/25 12:35:13;;;;;;;38.10;26.27;;;18.60;16.60;;;;;;4982627;28;20766;-75
2022/03/25 12:37:54;;;;;;;38.37;27.57;;;18.70;16.60;;;;;;4979392;28;20518;-72
2022/03/25 12:40:23;;;;;;;42.63;27.90;;;18.40;16.60;;;;;;4977755;28;20504;-73
2022/03/25 12:42:51;;;;;;;39.60;27.80;;;18.20;16.20;;;;;;4978677;28;20449;-72
2022/03/25 12:45:27;;;;;;;48.20;27.07;;;18.00;16.50;;;;;;4978468;28;20499;-72
2022/03/25 12:47:54;;;;;;;38.20;25.53;;;18.20;16.60;;;;;;4982088;28;20460;-73